sensor_id;sensor_type;location;lat;lon;timestamp;temperature;humidity
24410;DHT22;12543;53.364;-1.504;2022-09-14T00:01:23;13.80;99.90
24410;DHT22;12543;53.364;-1.504;2022-09-14T00:03:57;13.80;99.90
24410;DHT22;12543;53.364;-1.504;2022-09-14T00:06:24;13.80;99.90
24410;DHT22;12543;53.364;-1.504;2022-09-14T00:08:52;13.80;99.90
24410;DHT22;12543;53.364;-1.504;2022-09-14T00:11:19;13.80;99.90
24410;DHT22;12543;53.364;-1.504;2022-09-14T00:13:47;13.80;99.90
24410;DHT22;12543;53.364;-1.504;2022-09-14T00:16:19;13.80;99.90
24410;DHT22;12543;53.364;-1.504;2022-09-14T00:18:53;13.70;99.90
24410;DHT22;12543;53.364;-1.504;2022-09-14T00:21:20;13.70;99.90
24410;DHT22;12543;53.364;-1.504;2022-09-14T00:23:47;13.70;99.90
24410;DHT22;12543;53.364;-1.504;2022-09-14T00:26:15;13.70;99.90
24410;DHT22;12543;53.364;-1.504;2022-09-14T00:28:44;13.60;99.90
24410;DHT22;12543;53.364;-1.504;2022-09-14T00:31:11;13.60;99.90
24410;DHT22;12543;53.364;-1.504;2022-09-14T00:33:40;13.60;99.90
24410;DHT22;12543;53.364;-1.504;2022-09-14T00:36:08;13.60;99.90
24410;DHT22;12543;53.364;-1.504;2022-09-14T00:38:35;13.60;99.90
24410;DHT22;12543;53.364;-1.504;2022-09-14T00:41:10;13.60;99.90
24410;DHT22;12543;53.364;-1.504;2022-09-14T00:43:50;13.50;99.90
24410;DHT22;12543;53.364;-1.504;2022-09-14T00:46:17;13.50;99.90
24410;DHT22;12543;53.364;-1.504;2022-09-14T00:48:44;13.50;99.90
24410;DHT22;12543;53.364;-1.504;2022-09-14T00:51:11;13.40;99.90
24410;DHT22;12543;53.364;-1.504;2022-09-14T00:53:38;13.40;99.90
24410;DHT22;12543;53.364;-1.504;2022-09-14T00:56:05;13.40;99.90
24410;DHT22;12543;53.364;-1.504;2022-09-14T00:58:32;13.40;99.90
24410;DHT22;12543;53.364;-1.504;2022-09-14T01:00:59;13.40;99.90
24410;DHT22;12543;53.364;-1.504;2022-09-14T01:03:28;13.40;99.90
24410;DHT22;12543;53.364;-1.504;2022-09-14T01:13:38;13.30;99.90
24410;DHT22;12543;53.364;-1.504;2022-09-14T01:16:29;13.30;99.90
24410;DHT22;12543;53.364;-1.504;2022-09-14T01:18:59;13.20;99.90
24410;DHT22;12543;53.364;-1.504;2022-09-14T01:24:02;13.20;99.90
24410;DHT22;12543;53.364;-1.504;2022-09-14T01:29:05;13.20;99.90
24410;DHT22;12543;53.364;-1.504;2022-09-14T01:31:41;13.20;99.90
24410;DHT22;12543;53.364;-1.504;2022-09-14T01:34:12;13.10;99.90
24410;DHT22;12543;53.364;-1.504;2022-09-14T01:36:41;13.10;99.90
24410;DHT22;12543;53.364;-1.504;2022-09-14T01:39:10;13.20;99.90
24410;DHT22;12543;53.364;-1.504;2022-09-14T01:41:37;13.10;99.90
24410;DHT22;12543;53.364;-1.504;2022-09-14T01:44:09;13.10;99.90
24410;DHT22;12543;53.364;-1.504;2022-09-14T01:46:41;13.10;99.90
24410;DHT22;12543;53.364;-1.504;2022-09-14T01:51:45;13.10;99.90
24410;DHT22;12543;53.364;-1.504;2022-09-14T01:54:17;13.00;99.90
24410;DHT22;12543;53.364;-1.504;2022-09-14T01:56:57;13.00;99.90
24410;DHT22;12543;53.364;-1.504;2022-09-14T01:59:32;13.00;99.90
24410;DHT22;12543;53.364;-1.504;2022-09-14T02:02:02;13.00;99.90
24410;DHT22;12543;53.364;-1.504;2022-09-14T02:04:51;13.00;99.90
24410;DHT22;12543;53.364;-1.504;2022-09-14T02:07:18;12.90;99.90
24410;DHT22;12543;53.364;-1.504;2022-09-14T02:09:46;12.90;99.90
24410;DHT22;12543;53.364;-1.504;2022-09-14T02:12:14;12.90;99.90
24410;DHT22;12543;53.364;-1.504;2022-09-14T02:14:42;12.80;99.90
24410;DHT22;12543;53.364;-1.504;2022-09-14T02:17:09;12.80;99.90
24410;DHT22;12543;53.364;-1.504;2022-09-14T02:19:39;12.80;99.90
24410;DHT22;12543;53.364;-1.504;2022-09-14T02:22:07;12.80;99.90
24410;DHT22;12543;53.364;-1.504;2022-09-14T02:24:34;12.80;99.90
24410;DHT22;12543;53.364;-1.504;2022-09-14T02:27:01;12.80;99.90
24410;DHT22;12543;53.364;-1.504;2022-09-14T02:29:31;12.80;99.90
24410;DHT22;12543;53.364;-1.504;2022-09-14T02:35:22;12.70;99.90
24410;DHT22;12543;53.364;-1.504;2022-09-14T02:42:35;12.70;99.90
24410;DHT22;12543;53.364;-1.504;2022-09-14T02:50:19;12.60;99.90
24410;DHT22;12543;53.364;-1.504;2022-09-14T02:55:14;12.60;99.90
24410;DHT22;12543;53.364;-1.504;2022-09-14T02:57:57;12.60;99.90
24410;DHT22;12543;53.364;-1.504;2022-09-14T03:00:25;12.60;99.90
24410;DHT22;12543;53.364;-1.504;2022-09-14T03:02:53;12.60;99.90
24410;DHT22;12543;53.364;-1.504;2022-09-14T03:05:20;12.70;99.90
24410;DHT22;12543;53.364;-1.504;2022-09-14T03:07:46;12.70;99.90
24410;DHT22;12543;53.364;-1.504;2022-09-14T03:10:13;12.70;99.90
24410;DHT22;12543;53.364;-1.504;2022-09-14T03:12:41;12.70;99.90
24410;DHT22;12543;53.364;-1.504;2022-09-14T03:15:11;12.70;99.90
24410;DHT22;12543;53.364;-1.504;2022-09-14T03:17:44;12.80;99.90
24410;DHT22;12543;53.364;-1.504;2022-09-14T03:20:11;12.80;99.90
24410;DHT22;12543;53.364;-1.504;2022-09-14T03:22:39;12.90;99.90
24410;DHT22;12543;53.364;-1.504;2022-09-14T03:25:06;12.90;99.90
24410;DHT22;12543;53.364;-1.504;2022-09-14T03:27:35;12.90;99.90
24410;DHT22;12543;53.364;-1.504;2022-09-14T03:30:03;12.90;99.90
24410;DHT22;12543;53.364;-1.504;2022-09-14T03:32:30;13.00;99.90
24410;DHT22;12543;53.364;-1.504;2022-09-14T03:34:57;13.00;99.90
24410;DHT22;12543;53.364;-1.504;2022-09-14T03:37:24;13.00;99.90
24410;DHT22;12543;53.364;-1.504;2022-09-14T03:39:51;13.00;99.90
24410;DHT22;12543;53.364;-1.504;2022-09-14T03:42:18;13.00;99.90
24410;DHT22;12543;53.364;-1.504;2022-09-14T03:44:45;13.00;99.90
24410;DHT22;12543;53.364;-1.504;2022-09-14T03:47:12;13.00;99.90
24410;DHT22;12543;53.364;-1.504;2022-09-14T03:49:39;13.00;99.90
24410;DHT22;12543;53.364;-1.504;2022-09-14T03:52:06;12.90;99.90
24410;DHT22;12543;53.364;-1.504;2022-09-14T03:54:33;12.90;99.90
24410;DHT22;12543;53.364;-1.504;2022-09-14T03:57:00;12.90;99.90
24410;DHT22;12543;53.364;-1.504;2022-09-14T03:59:27;12.90;99.90
24410;DHT22;12543;53.364;-1.504;2022-09-14T04:01:54;12.90;99.90
24410;DHT22;12543;53.364;-1.504;2022-09-14T04:04:21;12.80;99.90
24410;DHT22;12543;53.364;-1.504;2022-09-14T04:06:48;12.80;99.90
24410;DHT22;12543;53.364;-1.504;2022-09-14T04:09:15;12.80;99.90
24410;DHT22;12543;53.364;-1.504;2022-09-14T04:11:45;12.80;99.90
24410;DHT22;12543;53.364;-1.504;2022-09-14T04:14:12;12.80;99.90
24410;DHT22;12543;53.364;-1.504;2022-09-14T04:16:40;12.80;99.90
24410;DHT22;12543;53.364;-1.504;2022-09-14T04:19:09;12.80;99.90
24410;DHT22;12543;53.364;-1.504;2022-09-14T04:21:37;12.80;99.90
24410;DHT22;12543;53.364;-1.504;2022-09-14T04:24:04;12.80;99.90
24410;DHT22;12543;53.364;-1.504;2022-09-14T04:26:47;12.70;99.90
24410;DHT22;12543;53.364;-1.504;2022-09-14T04:29:14;12.70;99.90
24410;DHT22;12543;53.364;-1.504;2022-09-14T04:31:41;12.70;99.90
24410;DHT22;12543;53.364;-1.504;2022-09-14T04:34:09;12.70;99.90
24410;DHT22;12543;53.364;-1.504;2022-09-14T04:36:36;12.60;99.90
24410;DHT22;12543;53.364;-1.504;2022-09-14T04:42:04;12.60;99.90
24410;DHT22;12543;53.364;-1.504;2022-09-14T04:44:31;12.50;99.90
24410;DHT22;12543;53.364;-1.504;2022-09-14T04:46:58;12.50;99.90
24410;DHT22;12543;53.364;-1.504;2022-09-14T04:49:25;12.50;99.90
24410;DHT22;12543;53.364;-1.504;2022-09-14T04:51:52;12.50;99.90
24410;DHT22;12543;53.364;-1.504;2022-09-14T04:54:19;12.50;99.90
24410;DHT22;12543;53.364;-1.504;2022-09-14T04:56:46;12.40;99.90
24410;DHT22;12543;53.364;-1.504;2022-09-14T04:59:13;12.50;99.90
24410;DHT22;12543;53.364;-1.504;2022-09-14T05:05:08;12.50;99.90
24410;DHT22;12543;53.364;-1.504;2022-09-14T05:07:35;12.40;99.90
24410;DHT22;12543;53.364;-1.504;2022-09-14T05:10:02;12.50;99.90
24410;DHT22;12543;53.364;-1.504;2022-09-14T05:12:29;12.50;99.90
24410;DHT22;12543;53.364;-1.504;2022-09-14T05:14:56;12.50;99.90
24410;DHT22;12543;53.364;-1.504;2022-09-14T05:17:23;12.50;99.90
24410;DHT22;12543;53.364;-1.504;2022-09-14T05:19:50;12.50;99.90
24410;DHT22;12543;53.364;-1.504;2022-09-14T05:22:17;12.40;99.90
24410;DHT22;12543;53.364;-1.504;2022-09-14T05:24:44;12.40;99.90
24410;DHT22;12543;53.364;-1.504;2022-09-14T05:27:11;12.50;99.90
24410;DHT22;12543;53.364;-1.504;2022-09-14T05:29:38;12.50;99.90
24410;DHT22;12543;53.364;-1.504;2022-09-14T05:32:05;12.50;99.90
24410;DHT22;12543;53.364;-1.504;2022-09-14T05:34:32;12.50;99.90
24410;DHT22;12543;53.364;-1.504;2022-09-14T05:36:59;12.50;99.90
24410;DHT22;12543;53.364;-1.504;2022-09-14T05:39:26;12.50;99.90
24410;DHT22;12543;53.364;-1.504;2022-09-14T05:41:53;12.50;99.90
24410;DHT22;12543;53.364;-1.504;2022-09-14T05:44:20;12.50;99.90
24410;DHT22;12543;53.364;-1.504;2022-09-14T05:46:47;12.50;99.90
24410;DHT22;12543;53.364;-1.504;2022-09-14T05:49:14;12.50;99.90
24410;DHT22;12543;53.364;-1.504;2022-09-14T05:51:41;12.40;99.90
24410;DHT22;12543;53.364;-1.504;2022-09-14T05:54:08;12.40;99.90
24410;DHT22;12543;53.364;-1.504;2022-09-14T05:56:37;12.50;99.90
24410;DHT22;12543;53.364;-1.504;2022-09-14T05:59:04;12.40;99.90
24410;DHT22;12543;53.364;-1.504;2022-09-14T06:01:33;12.40;99.90
24410;DHT22;12543;53.364;-1.504;2022-09-14T06:04:01;12.40;99.90
24410;DHT22;12543;53.364;-1.504;2022-09-14T06:06:28;12.40;99.90
24410;DHT22;12543;53.364;-1.504;2022-09-14T06:08:55;12.40;99.90
24410;DHT22;12543;53.364;-1.504;2022-09-14T06:11:24;12.40;99.90
24410;DHT22;12543;53.364;-1.504;2022-09-14T06:13:52;12.40;99.90
24410;DHT22;12543;53.364;-1.504;2022-09-14T06:16:19;12.40;99.90
24410;DHT22;12543;53.364;-1.504;2022-09-14T06:18:47;12.50;99.90
24410;DHT22;12543;53.364;-1.504;2022-09-14T06:21:15;12.50;99.90
24410;DHT22;12543;53.364;-1.504;2022-09-14T06:23:42;12.50;99.90
24410;DHT22;12543;53.364;-1.504;2022-09-14T06:26:10;12.50;99.90
24410;DHT22;12543;53.364;-1.504;2022-09-14T06:28:37;12.50;99.90
24410;DHT22;12543;53.364;-1.504;2022-09-14T06:31:04;12.50;99.90
24410;DHT22;12543;53.364;-1.504;2022-09-14T06:33:33;12.50;99.90
24410;DHT22;12543;53.364;-1.504;2022-09-14T06:38:28;12.50;99.90
24410;DHT22;12543;53.364;-1.504;2022-09-14T06:40:56;12.50;99.90
24410;DHT22;12543;53.364;-1.504;2022-09-14T06:43:24;12.50;99.90
24410;DHT22;12543;53.364;-1.504;2022-09-14T06:46:25;12.50;99.90
24410;DHT22;12543;53.364;-1.504;2022-09-14T06:48:55;12.60;99.90
24410;DHT22;12543;53.364;-1.504;2022-09-14T06:53:54;12.70;99.90
24410;DHT22;12543;53.364;-1.504;2022-09-14T06:56:21;12.70;99.90
24410;DHT22;12543;53.364;-1.504;2022-09-14T06:58:48;12.70;99.90
24410;DHT22;12543;53.364;-1.504;2022-09-14T07:01:16;12.70;99.90
24410;DHT22;12543;53.364;-1.504;2022-09-14T07:03:45;12.80;99.90
24410;DHT22;12543;53.364;-1.504;2022-09-14T07:06:14;12.80;99.90
24410;DHT22;12543;53.364;-1.504;2022-09-14T07:08:42;12.90;99.90
24410;DHT22;12543;53.364;-1.504;2022-09-14T07:11:10;12.90;99.90
24410;DHT22;12543;53.364;-1.504;2022-09-14T07:13:38;13.00;99.90
24410;DHT22;12543;53.364;-1.504;2022-09-14T07:16:05;13.10;99.90
24410;DHT22;12543;53.364;-1.504;2022-09-14T07:18:33;13.10;99.90
24410;DHT22;12543;53.364;-1.504;2022-09-14T07:21:06;13.20;99.90
24410;DHT22;12543;53.364;-1.504;2022-09-14T07:23:34;13.30;99.90
24410;DHT22;12543;53.364;-1.504;2022-09-14T07:26:06;13.30;99.90
24410;DHT22;12543;53.364;-1.504;2022-09-14T07:28:33;13.40;99.90
24410;DHT22;12543;53.364;-1.504;2022-09-14T07:31:01;13.50;99.90
24410;DHT22;12543;53.364;-1.504;2022-09-14T07:33:28;13.50;99.90
24410;DHT22;12543;53.364;-1.504;2022-09-14T07:36:17;13.60;99.90
24410;DHT22;12543;53.364;-1.504;2022-09-14T07:38:42;13.70;99.90
24410;DHT22;12543;53.364;-1.504;2022-09-14T07:41:22;13.70;99.90
24410;DHT22;12543;53.364;-1.504;2022-09-14T07:43:50;13.80;99.90
24410;DHT22;12543;53.364;-1.504;2022-09-14T07:46:17;13.80;99.90
24410;DHT22;12543;53.364;-1.504;2022-09-14T07:48:45;13.90;99.90
24410;DHT22;12543;53.364;-1.504;2022-09-14T07:51:12;14.00;99.90
24410;DHT22;12543;53.364;-1.504;2022-09-14T07:53:40;14.10;99.90
24410;DHT22;12543;53.364;-1.504;2022-09-14T07:56:09;14.10;99.90
24410;DHT22;12543;53.364;-1.504;2022-09-14T07:58:36;14.20;99.90
24410;DHT22;12543;53.364;-1.504;2022-09-14T08:01:04;14.20;99.90
24410;DHT22;12543;53.364;-1.504;2022-09-14T08:03:33;14.30;99.90
24410;DHT22;12543;53.364;-1.504;2022-09-14T08:06:03;14.40;99.90
24410;DHT22;12543;53.364;-1.504;2022-09-14T08:08:33;14.40;99.90
24410;DHT22;12543;53.364;-1.504;2022-09-14T08:11:02;14.50;99.90
24410;DHT22;12543;53.364;-1.504;2022-09-14T08:13:32;14.60;99.90
24410;DHT22;12543;53.364;-1.504;2022-09-14T08:15:59;14.60;99.90
24410;DHT22;12543;53.364;-1.504;2022-09-14T08:18:28;14.70;99.90
24410;DHT22;12543;53.364;-1.504;2022-09-14T08:20:55;14.80;99.90
24410;DHT22;12543;53.364;-1.504;2022-09-14T08:23:22;14.80;99.90
24410;DHT22;12543;53.364;-1.504;2022-09-14T08:25:50;14.90;99.90
24410;DHT22;12543;53.364;-1.504;2022-09-14T08:28:18;15.00;99.90
24410;DHT22;12543;53.364;-1.504;2022-09-14T08:30:45;15.10;99.90
24410;DHT22;12543;53.364;-1.504;2022-09-14T08:33:12;15.10;99.90
24410;DHT22;12543;53.364;-1.504;2022-09-14T08:35:42;15.20;99.90
24410;DHT22;12543;53.364;-1.504;2022-09-14T08:38:23;15.30;99.90
24410;DHT22;12543;53.364;-1.504;2022-09-14T08:40:50;15.40;99.90
24410;DHT22;12543;53.364;-1.504;2022-09-14T08:43:18;15.50;99.90
24410;DHT22;12543;53.364;-1.504;2022-09-14T08:45:47;15.60;99.90
24410;DHT22;12543;53.364;-1.504;2022-09-14T08:48:36;15.60;99.90
24410;DHT22;12543;53.364;-1.504;2022-09-14T08:51:03;15.80;99.90
24410;DHT22;12543;53.364;-1.504;2022-09-14T08:53:31;16.00;99.90
24410;DHT22;12543;53.364;-1.504;2022-09-14T08:56:12;16.10;99.90
24410;DHT22;12543;53.364;-1.504;2022-09-14T09:06:25;17.30;99.90
24410;DHT22;12543;53.364;-1.504;2022-09-14T09:11:34;18.00;99.90
24410;DHT22;12543;53.364;-1.504;2022-09-14T09:14:03;18.50;99.90
24410;DHT22;12543;53.364;-1.504;2022-09-14T09:16:32;18.90;99.90
24410;DHT22;12543;53.364;-1.504;2022-09-14T09:19:04;19.30;99.90
24410;DHT22;12543;53.364;-1.504;2022-09-14T09:21:40;19.70;99.90
24410;DHT22;12543;53.364;-1.504;2022-09-14T09:24:21;20.20;99.90
24410;DHT22;12543;53.364;-1.504;2022-09-14T09:26:50;20.60;99.90
24410;DHT22;12543;53.364;-1.504;2022-09-14T09:29:17;20.90;99.90
24410;DHT22;12543;53.364;-1.504;2022-09-14T09:32:03;21.00;99.90
24410;DHT22;12543;53.364;-1.504;2022-09-14T09:34:39;21.10;99.90
24410;DHT22;12543;53.364;-1.504;2022-09-14T09:37:42;21.30;99.90
24410;DHT22;12543;53.364;-1.504;2022-09-14T09:40:29;21.70;99.90
24410;DHT22;12543;53.364;-1.504;2022-09-14T09:43:14;22.20;99.90
24410;DHT22;12543;53.364;-1.504;2022-09-14T09:46:04;22.60;99.90
24410;DHT22;12543;53.364;-1.504;2022-09-14T09:48:40;23.10;99.90
24410;DHT22;12543;53.364;-1.504;2022-09-14T09:53:44;23.70;99.90
24410;DHT22;12543;53.364;-1.504;2022-09-14T09:56:16;24.00;99.90
24410;DHT22;12543;53.364;-1.504;2022-09-14T09:58:44;24.10;99.90
24410;DHT22;12543;53.364;-1.504;2022-09-14T10:03:46;24.20;99.90
24410;DHT22;12543;53.364;-1.504;2022-09-14T10:06:26;24.30;99.90
24410;DHT22;12543;53.364;-1.504;2022-09-14T10:08:53;24.50;99.90
24410;DHT22;12543;53.364;-1.504;2022-09-14T10:11:27;24.70;99.90
24410;DHT22;12543;53.364;-1.504;2022-09-14T10:13:55;24.90;99.90
24410;DHT22;12543;53.364;-1.504;2022-09-14T10:16:22;25.00;99.90
24410;DHT22;12543;53.364;-1.504;2022-09-14T10:18:51;25.00;99.90
24410;DHT22;12543;53.364;-1.504;2022-09-14T10:21:19;24.90;99.90
24410;DHT22;12543;53.364;-1.504;2022-09-14T10:23:46;25.00;99.90
24410;DHT22;12543;53.364;-1.504;2022-09-14T10:26:27;25.10;99.90
24410;DHT22;12543;53.364;-1.504;2022-09-14T10:29:15;25.30;99.90
24410;DHT22;12543;53.364;-1.504;2022-09-14T10:31:44;25.50;99.90
24410;DHT22;12543;53.364;-1.504;2022-09-14T10:34:12;25.80;99.90
24410;DHT22;12543;53.364;-1.504;2022-09-14T10:36:46;26.10;99.90
24410;DHT22;12543;53.364;-1.504;2022-09-14T10:39:26;26.30;99.90
24410;DHT22;12543;53.364;-1.504;2022-09-14T10:47:45;27.00;99.90
24410;DHT22;12543;53.364;-1.504;2022-09-14T10:50:40;27.30;99.90
24410;DHT22;12543;53.364;-1.504;2022-09-14T10:56:05;27.70;99.90
24410;DHT22;12543;53.364;-1.504;2022-09-14T10:58:52;27.60;99.90
24410;DHT22;12543;53.364;-1.504;2022-09-14T11:04:27;27.90;99.90
24410;DHT22;12543;53.364;-1.504;2022-09-14T11:06:48;28.10;99.90
24410;DHT22;12543;53.364;-1.504;2022-09-14T11:09:21;28.00;99.90
24410;DHT22;12543;53.364;-1.504;2022-09-14T11:14:27;28.20;99.90
24410;DHT22;12543;53.364;-1.504;2022-09-14T11:22:29;28.60;99.90
24410;DHT22;12543;53.364;-1.504;2022-09-14T11:24:55;28.90;99.90
24410;DHT22;12543;53.364;-1.504;2022-09-14T11:27:25;29.10;99.90
24410;DHT22;12543;53.364;-1.504;2022-09-14T11:30:00;29.10;99.90
24410;DHT22;12543;53.364;-1.504;2022-09-14T11:37:36;28.50;99.90
24410;DHT22;12543;53.364;-1.504;2022-09-14T11:40:06;28.10;99.90
24410;DHT22;12543;53.364;-1.504;2022-09-14T11:42:38;27.80;99.90
24410;DHT22;12543;53.364;-1.504;2022-09-14T11:45:14;27.70;99.90
24410;DHT22;12543;53.364;-1.504;2022-09-14T11:47:45;27.70;99.90
24410;DHT22;12543;53.364;-1.504;2022-09-14T11:52:41;27.70;99.90
24410;DHT22;12543;53.364;-1.504;2022-09-14T11:55:09;27.70;99.90
24410;DHT22;12543;53.364;-1.504;2022-09-14T11:57:36;27.60;99.90
24410;DHT22;12543;53.364;-1.504;2022-09-14T12:00:07;27.40;99.90
24410;DHT22;12543;53.364;-1.504;2022-09-14T12:13:24;26.30;99.90
24410;DHT22;12543;53.364;-1.504;2022-09-14T12:15:35;26.10;99.90
24410;DHT22;12543;53.364;-1.504;2022-09-14T12:25:53;24.90;99.90
24410;DHT22;12543;53.364;-1.504;2022-09-14T12:28:42;24.60;99.90
24410;DHT22;12543;53.364;-1.504;2022-09-14T12:31:34;24.40;99.90
24410;DHT22;12543;53.364;-1.504;2022-09-14T12:34:21;24.20;99.90
24410;DHT22;12543;53.364;-1.504;2022-09-14T12:39:24;24.00;99.90
24410;DHT22;12543;53.364;-1.504;2022-09-14T12:41:57;23.90;99.90
24410;DHT22;12543;53.364;-1.504;2022-09-14T12:44:30;23.80;99.90
24410;DHT22;12543;53.364;-1.504;2022-09-14T12:46:57;23.70;99.90
24410;DHT22;12543;53.364;-1.504;2022-09-14T12:49:29;23.60;99.90
24410;DHT22;12543;53.364;-1.504;2022-09-14T12:51:58;23.60;99.90
24410;DHT22;12543;53.364;-1.504;2022-09-14T12:54:49;23.50;99.90
24410;DHT22;12543;53.364;-1.504;2022-09-14T12:57:29;23.40;99.90
24410;DHT22;12543;53.364;-1.504;2022-09-14T13:00:15;23.30;99.90
24410;DHT22;12543;53.364;-1.504;2022-09-14T13:05:21;23.20;99.90
24410;DHT22;12543;53.364;-1.504;2022-09-14T13:07:50;23.10;99.90
24410;DHT22;12543;53.364;-1.504;2022-09-14T13:10:23;23.20;99.90
24410;DHT22;12543;53.364;-1.504;2022-09-14T13:12:53;23.20;99.90
24410;DHT22;12543;53.364;-1.504;2022-09-14T13:15:27;23.20;99.90
24410;DHT22;12543;53.364;-1.504;2022-09-14T13:18:00;23.20;99.90
24410;DHT22;12543;53.364;-1.504;2022-09-14T13:20:32;23.10;99.90
24410;DHT22;12543;53.364;-1.504;2022-09-14T13:23:01;23.20;99.90
24410;DHT22;12543;53.364;-1.504;2022-09-14T13:25:33;23.20;99.90
24410;DHT22;12543;53.364;-1.504;2022-09-14T13:28:11;23.10;99.90
24410;DHT22;12543;53.364;-1.504;2022-09-14T13:30:40;23.00;99.90
24410;DHT22;12543;53.364;-1.504;2022-09-14T13:33:14;23.00;99.90
24410;DHT22;12543;53.364;-1.504;2022-09-14T13:38:40;22.90;99.90
24410;DHT22;12543;53.364;-1.504;2022-09-14T13:41:09;22.90;99.90
24410;DHT22;12543;53.364;-1.504;2022-09-14T13:43:38;22.80;99.90
24410;DHT22;12543;53.364;-1.504;2022-09-14T13:46:07;22.80;99.90
24410;DHT22;12543;53.364;-1.504;2022-09-14T13:48:36;22.70;99.90
24410;DHT22;12543;53.364;-1.504;2022-09-14T13:51:11;22.70;99.90
24410;DHT22;12543;53.364;-1.504;2022-09-14T13:56:20;22.50;99.90
24410;DHT22;12543;53.364;-1.504;2022-09-14T13:58:49;22.50;99.90
24410;DHT22;12543;53.364;-1.504;2022-09-14T14:01:24;22.40;99.90
24410;DHT22;12543;53.364;-1.504;2022-09-14T14:03:52;22.40;99.90
24410;DHT22;12543;53.364;-1.504;2022-09-14T14:06:37;22.30;99.90
24410;DHT22;12543;53.364;-1.504;2022-09-14T14:09:06;22.20;99.90
24410;DHT22;12543;53.364;-1.504;2022-09-14T14:11:37;22.20;99.90
24410;DHT22;12543;53.364;-1.504;2022-09-14T14:14:10;22.10;99.90
24410;DHT22;12543;53.364;-1.504;2022-09-14T14:16:38;22.00;99.90
24410;DHT22;12543;53.364;-1.504;2022-09-14T14:19:25;21.90;99.90
24410;DHT22;12543;53.364;-1.504;2022-09-14T14:22:10;21.80;99.90
24410;DHT22;12543;53.364;-1.504;2022-09-14T14:24:39;21.80;99.90
24410;DHT22;12543;53.364;-1.504;2022-09-14T14:27:35;21.70;99.90
24410;DHT22;12543;53.364;-1.504;2022-09-14T14:30:11;21.70;99.90
24410;DHT22;12543;53.364;-1.504;2022-09-14T14:32:38;21.60;99.90
24410;DHT22;12543;53.364;-1.504;2022-09-14T14:35:16;21.60;99.90
24410;DHT22;12543;53.364;-1.504;2022-09-14T14:37:44;21.60;99.90
24410;DHT22;12543;53.364;-1.504;2022-09-14T14:40:11;21.60;99.90
24410;DHT22;12543;53.364;-1.504;2022-09-14T14:42:38;21.50;99.90
24410;DHT22;12543;53.364;-1.504;2022-09-14T14:45:05;21.50;99.90
24410;DHT22;12543;53.364;-1.504;2022-09-14T14:47:33;21.50;99.90
24410;DHT22;12543;53.364;-1.504;2022-09-14T14:50:00;21.40;99.90
24410;DHT22;12543;53.364;-1.504;2022-09-14T14:52:29;21.30;99.90
24410;DHT22;12543;53.364;-1.504;2022-09-14T14:54:56;21.20;99.90
24410;DHT22;12543;53.364;-1.504;2022-09-14T14:57:23;21.10;99.90
24410;DHT22;12543;53.364;-1.504;2022-09-14T14:59:50;21.00;99.90
24410;DHT22;12543;53.364;-1.504;2022-09-14T15:02:18;20.90;99.90
24410;DHT22;12543;53.364;-1.504;2022-09-14T15:04:45;20.70;99.90
24410;DHT22;12543;53.364;-1.504;2022-09-14T15:07:13;20.60;99.90
24410;DHT22;12543;53.364;-1.504;2022-09-14T15:09:40;20.50;99.90
24410;DHT22;12543;53.364;-1.504;2022-09-14T15:12:07;20.40;99.90
24410;DHT22;12543;53.364;-1.504;2022-09-14T15:14:35;20.30;99.90
24410;DHT22;12543;53.364;-1.504;2022-09-14T15:17:01;20.20;99.90
24410;DHT22;12543;53.364;-1.504;2022-09-14T15:19:29;20.20;99.90
24410;DHT22;12543;53.364;-1.504;2022-09-14T15:21:58;20.10;99.90
24410;DHT22;12543;53.364;-1.504;2022-09-14T15:24:27;20.00;99.90
24410;DHT22;12543;53.364;-1.504;2022-09-14T15:26:54;20.00;99.90
24410;DHT22;12543;53.364;-1.504;2022-09-14T15:29:21;20.00;99.90
24410;DHT22;12543;53.364;-1.504;2022-09-14T15:31:48;20.00;99.90
24410;DHT22;12543;53.364;-1.504;2022-09-14T15:34:15;20.00;99.90
24410;DHT22;12543;53.364;-1.504;2022-09-14T15:36:43;19.90;99.90
24410;DHT22;12543;53.364;-1.504;2022-09-14T15:39:13;19.80;99.90
24410;DHT22;12543;53.364;-1.504;2022-09-14T15:41:45;19.70;99.90
24410;DHT22;12543;53.364;-1.504;2022-09-14T15:44:12;19.70;99.90
24410;DHT22;12543;53.364;-1.504;2022-09-14T15:46:39;19.60;99.90
24410;DHT22;12543;53.364;-1.504;2022-09-14T15:49:07;19.50;99.90
24410;DHT22;12543;53.364;-1.504;2022-09-14T15:51:34;19.50;99.90
24410;DHT22;12543;53.364;-1.504;2022-09-14T15:54:01;19.30;99.90
24410;DHT22;12543;53.364;-1.504;2022-09-14T15:56:29;19.30;99.90
24410;DHT22;12543;53.364;-1.504;2022-09-14T15:58:56;19.30;99.90
24410;DHT22;12543;53.364;-1.504;2022-09-14T16:01:24;19.20;99.90
24410;DHT22;12543;53.364;-1.504;2022-09-14T16:04:02;19.10;99.90
24410;DHT22;12543;53.364;-1.504;2022-09-14T16:06:33;19.10;99.90
24410;DHT22;12543;53.364;-1.504;2022-09-14T16:09:00;19.10;99.90
24410;DHT22;12543;53.364;-1.504;2022-09-14T16:11:30;19.00;99.90
24410;DHT22;12543;53.364;-1.504;2022-09-14T16:13:57;18.90;99.90
24410;DHT22;12543;53.364;-1.504;2022-09-14T16:16:27;18.90;99.90
24410;DHT22;12543;53.364;-1.504;2022-09-14T16:18:54;18.90;99.90
24410;DHT22;12543;53.364;-1.504;2022-09-14T16:21:22;18.80;99.90
24410;DHT22;12543;53.364;-1.504;2022-09-14T16:23:50;18.80;99.90
24410;DHT22;12543;53.364;-1.504;2022-09-14T16:26:22;18.70;99.90
24410;DHT22;12543;53.364;-1.504;2022-09-14T16:28:49;18.70;99.90
24410;DHT22;12543;53.364;-1.504;2022-09-14T16:31:18;18.70;99.90
24410;DHT22;12543;53.364;-1.504;2022-09-14T16:33:47;18.60;99.90
24410;DHT22;12543;53.364;-1.504;2022-09-14T16:36:21;18.70;99.90
24410;DHT22;12543;53.364;-1.504;2022-09-14T16:38:56;18.60;99.90
24410;DHT22;12543;53.364;-1.504;2022-09-14T16:41:24;18.70;99.90
24410;DHT22;12543;53.364;-1.504;2022-09-14T16:43:54;18.70;99.90
24410;DHT22;12543;53.364;-1.504;2022-09-14T16:46:21;18.70;99.90
24410;DHT22;12543;53.364;-1.504;2022-09-14T16:48:52;18.70;99.90
24410;DHT22;12543;53.364;-1.504;2022-09-14T16:51:23;18.70;99.90
24410;DHT22;12543;53.364;-1.504;2022-09-14T16:53:51;18.80;99.90
24410;DHT22;12543;53.364;-1.504;2022-09-14T16:56:22;18.70;99.90
24410;DHT22;12543;53.364;-1.504;2022-09-14T16:58:50;18.80;99.90
24410;DHT22;12543;53.364;-1.504;2022-09-14T17:01:31;18.70;99.90
24410;DHT22;12543;53.364;-1.504;2022-09-14T17:04:02;18.80;99.90
24410;DHT22;12543;53.364;-1.504;2022-09-14T17:06:34;18.80;99.90
24410;DHT22;12543;53.364;-1.504;2022-09-14T17:09:10;18.70;99.90
24410;DHT22;12543;53.364;-1.504;2022-09-14T17:11:38;18.70;99.90
24410;DHT22;12543;53.364;-1.504;2022-09-14T17:14:06;18.70;99.90
24410;DHT22;12543;53.364;-1.504;2022-09-14T17:16:33;18.70;99.90
24410;DHT22;12543;53.364;-1.504;2022-09-14T17:19:01;18.60;99.90
24410;DHT22;12543;53.364;-1.504;2022-09-14T17:21:31;18.60;99.90
24410;DHT22;12543;53.364;-1.504;2022-09-14T17:23:59;18.60;99.90
24410;DHT22;12543;53.364;-1.504;2022-09-14T17:26:27;18.50;99.90
24410;DHT22;12543;53.364;-1.504;2022-09-14T17:28:54;18.50;99.90